sensor_id;sensor_type;location;lat;lon;timestamp;temperature;humidity
2012;DHT22;1009;51.436;6.972;2023-08-12T00:01:26;21.70;99.90
2012;DHT22;1009;51.436;6.972;2023-08-12T00:03:53;21.70;99.90
2012;DHT22;1009;51.436;6.972;2023-08-12T00:06:20;21.70;99.90
2012;DHT22;1009;51.436;6.972;2023-08-12T00:08:47;21.70;99.90
2012;DHT22;1009;51.436;6.972;2023-08-12T00:11:14;21.80;99.90
2012;DHT22;1009;51.436;6.972;2023-08-12T00:13:41;21.80;99.90
2012;DHT22;1009;51.436;6.972;2023-08-12T00:16:09;21.80;99.90
2012;DHT22;1009;51.436;6.972;2023-08-12T00:18:35;21.80;99.90
2012;DHT22;1009;51.436;6.972;2023-08-12T00:21:06;21.80;99.90
2012;DHT22;1009;51.436;6.972;2023-08-12T00:23:38;21.80;99.90
2012;DHT22;1009;51.436;6.972;2023-08-12T00:26:05;21.80;99.90
2012;DHT22;1009;51.436;6.972;2023-08-12T00:28:32;21.80;99.90
2012;DHT22;1009;51.436;6.972;2023-08-12T00:30:59;21.70;99.90
2012;DHT22;1009;51.436;6.972;2023-08-12T00:33:27;21.60;99.90
2012;DHT22;1009;51.436;6.972;2023-08-12T00:35:57;21.70;99.90
2012;DHT22;1009;51.436;6.972;2023-08-12T00:38:24;21.70;99.90
2012;DHT22;1009;51.436;6.972;2023-08-12T00:40:50;21.70;99.90
2012;DHT22;1009;51.436;6.972;2023-08-12T00:43:17;21.60;99.90
2012;DHT22;1009;51.436;6.972;2023-08-12T00:45:44;21.60;99.90
2012;DHT22;1009;51.436;6.972;2023-08-12T00:48:11;21.60;99.90
2012;DHT22;1009;51.436;6.972;2023-08-12T00:50:40;21.60;99.90
2012;DHT22;1009;51.436;6.972;2023-08-12T00:53:08;21.60;99.90
2012;DHT22;1009;51.436;6.972;2023-08-12T00:55:35;21.60;99.90
2012;DHT22;1009;51.436;6.972;2023-08-12T00:58:03;21.60;99.90
2012;DHT22;1009;51.436;6.972;2023-08-12T01:00:31;21.60;99.90
2012;DHT22;1009;51.436;6.972;2023-08-12T01:03:00;21.60;99.90
2012;DHT22;1009;51.436;6.972;2023-08-12T01:05:27;21.50;99.90
2012;DHT22;1009;51.436;6.972;2023-08-12T01:07:56;21.50;99.90
2012;DHT22;1009;51.436;6.972;2023-08-12T01:10:25;21.40;99.90
2012;DHT22;1009;51.436;6.972;2023-08-12T01:13:02;21.50;99.90
2012;DHT22;1009;51.436;6.972;2023-08-12T01:15:31;21.50;99.90
2012;DHT22;1009;51.436;6.972;2023-08-12T01:18:00;21.50;99.90
2012;DHT22;1009;51.436;6.972;2023-08-12T01:20:28;21.50;99.90
2012;DHT22;1009;51.436;6.972;2023-08-12T01:23:06;21.50;99.90
2012;DHT22;1009;51.436;6.972;2023-08-12T01:25:33;21.50;99.90
2012;DHT22;1009;51.436;6.972;2023-08-12T01:28:00;21.50;99.90
2012;DHT22;1009;51.436;6.972;2023-08-12T01:30:27;21.60;99.90
2012;DHT22;1009;51.436;6.972;2023-08-12T01:32:57;21.60;99.90
2012;DHT22;1009;51.436;6.972;2023-08-12T01:35:28;21.60;99.90
2012;DHT22;1009;51.436;6.972;2023-08-12T01:37:58;21.60;99.90
2012;DHT22;1009;51.436;6.972;2023-08-12T01:40:28;21.60;99.90
2012;DHT22;1009;51.436;6.972;2023-08-12T01:42:55;21.60;99.90
2012;DHT22;1009;51.436;6.972;2023-08-12T01:45:22;21.60;99.90
2012;DHT22;1009;51.436;6.972;2023-08-12T01:47:49;21.60;99.90
2012;DHT22;1009;51.436;6.972;2023-08-12T01:50:16;21.60;99.90
2012;DHT22;1009;51.436;6.972;2023-08-12T01:52:44;21.60;99.90
2012;DHT22;1009;51.436;6.972;2023-08-12T01:55:11;21.60;99.90
2012;DHT22;1009;51.436;6.972;2023-08-12T01:57:39;21.60;99.90
2012;DHT22;1009;51.436;6.972;2023-08-12T02:00:06;21.60;99.90
2012;DHT22;1009;51.436;6.972;2023-08-12T02:02:34;21.60;99.90
2012;DHT22;1009;51.436;6.972;2023-08-12T02:05:00;21.60;99.90
2012;DHT22;1009;51.436;6.972;2023-08-12T02:07:27;21.50;99.90
2012;DHT22;1009;51.436;6.972;2023-08-12T02:09:54;21.50;99.90
2012;DHT22;1009;51.436;6.972;2023-08-12T02:12:20;21.50;99.90
2012;DHT22;1009;51.436;6.972;2023-08-12T02:14:49;21.50;99.90
2012;DHT22;1009;51.436;6.972;2023-08-12T02:17:15;21.50;99.90
2012;DHT22;1009;51.436;6.972;2023-08-12T02:19:42;21.50;99.90
2012;DHT22;1009;51.436;6.972;2023-08-12T02:22:09;21.50;99.90
2012;DHT22;1009;51.436;6.972;2023-08-12T02:24:36;21.50;99.90
2012;DHT22;1009;51.436;6.972;2023-08-12T02:27:03;21.50;99.90
2012;DHT22;1009;51.436;6.972;2023-08-12T02:29:30;21.50;99.90
2012;DHT22;1009;51.436;6.972;2023-08-12T02:31:58;21.50;99.90
2012;DHT22;1009;51.436;6.972;2023-08-12T02:34:25;21.40;99.90
2012;DHT22;1009;51.436;6.972;2023-08-12T02:36:55;21.40;99.90
2012;DHT22;1009;51.436;6.972;2023-08-12T02:39:22;21.40;99.90
2012;DHT22;1009;51.436;6.972;2023-08-12T02:41:48;21.40;99.90
2012;DHT22;1009;51.436;6.972;2023-08-12T02:44:15;21.40;99.90
2012;DHT22;1009;51.436;6.972;2023-08-12T02:46:42;21.50;99.90
2012;DHT22;1009;51.436;6.972;2023-08-12T02:49:10;21.50;99.90
2012;DHT22;1009;51.436;6.972;2023-08-12T02:51:37;21.40;99.90
2012;DHT22;1009;51.436;6.972;2023-08-12T02:54:04;21.40;99.90
2012;DHT22;1009;51.436;6.972;2023-08-12T02:56:31;21.40;99.90
2012;DHT22;1009;51.436;6.972;2023-08-12T02:58:57;21.40;99.90
2012;DHT22;1009;51.436;6.972;2023-08-12T03:01:24;21.30;99.90
2012;DHT22;1009;51.436;6.972;2023-08-12T03:03:52;21.40;99.90
2012;DHT22;1009;51.436;6.972;2023-08-12T03:06:20;21.40;99.90
2012;DHT22;1009;51.436;6.972;2023-08-12T03:08:47;21.30;99.90
2012;DHT22;1009;51.436;6.972;2023-08-12T03:11:14;21.30;99.90
2012;DHT22;1009;51.436;6.972;2023-08-12T03:13:41;21.30;99.90
2012;DHT22;1009;51.436;6.972;2023-08-12T03:16:11;21.30;99.90
2012;DHT22;1009;51.436;6.972;2023-08-12T03:18:44;21.30;99.90
2012;DHT22;1009;51.436;6.972;2023-08-12T03:21:14;21.30;99.90
2012;DHT22;1009;51.436;6.972;2023-08-12T03:23:42;21.40;99.90
2012;DHT22;1009;51.436;6.972;2023-08-12T03:26:08;21.40;99.90
2012;DHT22;1009;51.436;6.972;2023-08-12T03:28:35;21.40;99.90
2012;DHT22;1009;51.436;6.972;2023-08-12T03:31:02;21.40;99.90
2012;DHT22;1009;51.436;6.972;2023-08-12T03:33:29;21.40;99.90
2012;DHT22;1009;51.436;6.972;2023-08-12T03:35:57;21.30;99.90
2012;DHT22;1009;51.436;6.972;2023-08-12T03:38:24;21.30;99.90
2012;DHT22;1009;51.436;6.972;2023-08-12T03:40:52;21.20;99.90
2012;DHT22;1009;51.436;6.972;2023-08-12T03:43:18;21.20;99.90
2012;DHT22;1009;51.436;6.972;2023-08-12T03:45:45;21.10;99.90
2012;DHT22;1009;51.436;6.972;2023-08-12T03:48:12;21.20;99.90
2012;DHT22;1009;51.436;6.972;2023-08-12T03:50:40;21.20;99.90
2012;DHT22;1009;51.436;6.972;2023-08-12T03:53:07;21.20;99.90
2012;DHT22;1009;51.436;6.972;2023-08-12T03:55:35;21.20;99.90
2012;DHT22;1009;51.436;6.972;2023-08-12T03:58:03;21.20;99.90
2012;DHT22;1009;51.436;6.972;2023-08-12T04:00:30;21.20;99.90
2012;DHT22;1009;51.436;6.972;2023-08-12T04:02:57;21.20;99.90
2012;DHT22;1009;51.436;6.972;2023-08-12T04:05:24;21.20;99.90
2012;DHT22;1009;51.436;6.972;2023-08-12T04:07:51;21.30;99.90
2012;DHT22;1009;51.436;6.972;2023-08-12T04:10:17;21.30;99.90
2012;DHT22;1009;51.436;6.972;2023-08-12T04:12:47;21.30;99.90
2012;DHT22;1009;51.436;6.972;2023-08-12T04:15:15;21.30;99.90
2012;DHT22;1009;51.436;6.972;2023-08-12T04:17:42;21.30;99.90
2012;DHT22;1009;51.436;6.972;2023-08-12T04:20:09;21.30;99.90
2012;DHT22;1009;51.436;6.972;2023-08-12T04:22:36;21.30;99.90
2012;DHT22;1009;51.436;6.972;2023-08-12T04:25:04;21.30;99.90
2012;DHT22;1009;51.436;6.972;2023-08-12T04:27:30;21.20;99.90
2012;DHT22;1009;51.436;6.972;2023-08-12T04:29:57;21.20;99.90
2012;DHT22;1009;51.436;6.972;2023-08-12T04:32:25;21.20;99.90
2012;DHT22;1009;51.436;6.972;2023-08-12T04:34:52;21.30;99.90
2012;DHT22;1009;51.436;6.972;2023-08-12T04:37:19;21.20;99.90
2012;DHT22;1009;51.436;6.972;2023-08-12T04:39:45;21.30;99.90
2012;DHT22;1009;51.436;6.972;2023-08-12T04:42:12;21.20;99.90
2012;DHT22;1009;51.436;6.972;2023-08-12T04:44:41;21.20;99.90
2012;DHT22;1009;51.436;6.972;2023-08-12T04:47:08;21.20;99.90
2012;DHT22;1009;51.436;6.972;2023-08-12T04:49:37;21.20;99.90
2012;DHT22;1009;51.436;6.972;2023-08-12T04:52:04;21.10;99.90
2012;DHT22;1009;51.436;6.972;2023-08-12T04:54:32;21.20;99.90
2012;DHT22;1009;51.436;6.972;2023-08-12T04:56:59;21.20;99.90
2012;DHT22;1009;51.436;6.972;2023-08-12T04:59:25;21.20;99.90
2012;DHT22;1009;51.436;6.972;2023-08-12T05:01:52;21.10;99.90
2012;DHT22;1009;51.436;6.972;2023-08-12T05:04:19;21.20;99.90
2012;DHT22;1009;51.436;6.972;2023-08-12T05:06:47;21.20;99.90
2012;DHT22;1009;51.436;6.972;2023-08-12T05:09:14;21.30;99.90
2012;DHT22;1009;51.436;6.972;2023-08-12T05:11:40;21.30;99.90
2012;DHT22;1009;51.436;6.972;2023-08-12T05:14:07;21.30;99.90
2012;DHT22;1009;51.436;6.972;2023-08-12T05:16:34;21.30;99.90
2012;DHT22;1009;51.436;6.972;2023-08-12T05:19:01;21.40;99.90
2012;DHT22;1009;51.436;6.972;2023-08-12T05:21:28;21.40;99.90
2012;DHT22;1009;51.436;6.972;2023-08-12T05:23:56;21.50;99.90
2012;DHT22;1009;51.436;6.972;2023-08-12T05:26:23;21.50;99.90
2012;DHT22;1009;51.436;6.972;2023-08-12T05:28:49;21.40;99.90
2012;DHT22;1009;51.436;6.972;2023-08-12T05:31:16;21.40;99.90
2012;DHT22;1009;51.436;6.972;2023-08-12T05:33:43;21.40;99.90
2012;DHT22;1009;51.436;6.972;2023-08-12T05:36:10;21.30;99.90
2012;DHT22;1009;51.436;6.972;2023-08-12T05:38:36;21.10;99.90
2012;DHT22;1009;51.436;6.972;2023-08-12T05:41:05;21.10;99.90
2012;DHT22;1009;51.436;6.972;2023-08-12T05:43:32;21.00;99.90
2012;DHT22;1009;51.436;6.972;2023-08-12T05:45:59;20.90;99.90
2012;DHT22;1009;51.436;6.972;2023-08-12T05:48:29;20.90;99.90
2012;DHT22;1009;51.436;6.972;2023-08-12T05:50:56;20.80;99.90
2012;DHT22;1009;51.436;6.972;2023-08-12T05:53:22;20.70;99.90
2012;DHT22;1009;51.436;6.972;2023-08-12T05:55:49;20.80;99.90
2012;DHT22;1009;51.436;6.972;2023-08-12T05:58:17;20.70;99.90
2012;DHT22;1009;51.436;6.972;2023-08-12T06:00:47;20.80;99.90
2012;DHT22;1009;51.436;6.972;2023-08-12T06:03:14;20.80;99.90
2012;DHT22;1009;51.436;6.972;2023-08-12T06:05:42;20.70;99.90
2012;DHT22;1009;51.436;6.972;2023-08-12T06:08:09;20.70;99.90
2012;DHT22;1009;51.436;6.972;2023-08-12T06:10:36;20.70;99.90
2012;DHT22;1009;51.436;6.972;2023-08-12T06:13:03;20.80;99.90
2012;DHT22;1009;51.436;6.972;2023-08-12T06:15:31;20.70;99.90
2012;DHT22;1009;51.436;6.972;2023-08-12T06:17:59;20.80;99.90
2012;DHT22;1009;51.436;6.972;2023-08-12T06:20:25;20.70;99.90
2012;DHT22;1009;51.436;6.972;2023-08-12T06:22:52;20.70;99.90
2012;DHT22;1009;51.436;6.972;2023-08-12T06:25:19;20.60;99.90
2012;DHT22;1009;51.436;6.972;2023-08-12T06:27:46;20.70;99.90
2012;DHT22;1009;51.436;6.972;2023-08-12T06:30:13;20.60;99.90
2012;DHT22;1009;51.436;6.972;2023-08-12T06:32:41;20.60;99.90
2012;DHT22;1009;51.436;6.972;2023-08-12T06:35:08;20.50;99.90
2012;DHT22;1009;51.436;6.972;2023-08-12T06:37:35;20.50;99.90
2012;DHT22;1009;51.436;6.972;2023-08-12T06:40:03;20.60;99.90
2012;DHT22;1009;51.436;6.972;2023-08-12T06:42:30;20.50;99.90
2012;DHT22;1009;51.436;6.972;2023-08-12T06:44:57;20.50;99.90
2012;DHT22;1009;51.436;6.972;2023-08-12T06:47:25;20.50;99.90
2012;DHT22;1009;51.436;6.972;2023-08-12T06:49:54;20.60;99.90
2012;DHT22;1009;51.436;6.972;2023-08-12T06:52:21;20.50;99.90
2012;DHT22;1009;51.436;6.972;2023-08-12T06:54:48;20.50;99.90
2012;DHT22;1009;51.436;6.972;2023-08-12T06:57:14;20.50;99.90
2012;DHT22;1009;51.436;6.972;2023-08-12T06:59:41;20.50;99.90
2012;DHT22;1009;51.436;6.972;2023-08-12T07:02:08;20.50;99.90
2012;DHT22;1009;51.436;6.972;2023-08-12T07:04:35;20.50;99.90
2012;DHT22;1009;51.436;6.972;2023-08-12T07:07:03;20.40;99.90
2012;DHT22;1009;51.436;6.972;2023-08-12T07:09:30;20.40;99.90
2012;DHT22;1009;51.436;6.972;2023-08-12T07:11:57;20.40;99.90
2012;DHT22;1009;51.436;6.972;2023-08-12T07:14:24;20.40;99.90
2012;DHT22;1009;51.436;6.972;2023-08-12T07:16:51;20.40;99.90
2012;DHT22;1009;51.436;6.972;2023-08-12T07:19:17;20.40;99.90
2012;DHT22;1009;51.436;6.972;2023-08-12T07:21:44;20.50;99.90
2012;DHT22;1009;51.436;6.972;2023-08-12T07:24:12;20.40;99.90
2012;DHT22;1009;51.436;6.972;2023-08-12T07:26:39;20.40;99.90
2012;DHT22;1009;51.436;6.972;2023-08-12T07:29:06;20.50;99.90
2012;DHT22;1009;51.436;6.972;2023-08-12T07:31:32;20.60;99.90
2012;DHT22;1009;51.436;6.972;2023-08-12T07:33:59;20.60;99.90
2012;DHT22;1009;51.436;6.972;2023-08-12T07:36:26;20.60;99.90
2012;DHT22;1009;51.436;6.972;2023-08-12T07:38:53;20.70;99.90
2012;DHT22;1009;51.436;6.972;2023-08-12T07:41:21;20.70;99.90
2012;DHT22;1009;51.436;6.972;2023-08-12T07:43:50;20.70;99.90
2012;DHT22;1009;51.436;6.972;2023-08-12T07:46:17;20.60;99.90
2012;DHT22;1009;51.436;6.972;2023-08-12T07:48:43;20.60;99.90
2012;DHT22;1009;51.436;6.972;2023-08-12T07:51:10;20.60;99.90
2012;DHT22;1009;51.436;6.972;2023-08-12T07:53:37;20.60;99.90
2012;DHT22;1009;51.436;6.972;2023-08-12T07:56:04;20.60;99.90
2012;DHT22;1009;51.436;6.972;2023-08-12T07:58:32;20.60;99.90
2012;DHT22;1009;51.436;6.972;2023-08-12T08:00:58;20.70;99.90
2012;DHT22;1009;51.436;6.972;2023-08-12T08:03:25;20.80;99.90
2012;DHT22;1009;51.436;6.972;2023-08-12T08:05:52;20.90;99.90
2012;DHT22;1009;51.436;6.972;2023-08-12T08:08:19;20.90;99.90
2012;DHT22;1009;51.436;6.972;2023-08-12T08:10:46;20.90;99.90
2012;DHT22;1009;51.436;6.972;2023-08-12T08:13:12;20.90;99.90
2012;DHT22;1009;51.436;6.972;2023-08-12T08:15:41;20.90;99.90
2012;DHT22;1009;51.436;6.972;2023-08-12T08:18:07;20.90;99.90
2012;DHT22;1009;51.436;6.972;2023-08-12T08:20:34;20.90;99.90
2012;DHT22;1009;51.436;6.972;2023-08-12T08:23:01;21.00;99.90
2012;DHT22;1009;51.436;6.972;2023-08-12T08:25:28;21.00;99.90
2012;DHT22;1009;51.436;6.972;2023-08-12T08:27:55;21.00;99.90
2012;DHT22;1009;51.436;6.972;2023-08-12T08:30:21;21.00;99.90
2012;DHT22;1009;51.436;6.972;2023-08-12T08:32:51;21.10;99.90
2012;DHT22;1009;51.436;6.972;2023-08-12T08:35:18;21.10;99.90
2012;DHT22;1009;51.436;6.972;2023-08-12T08:37:44;21.10;99.90
2012;DHT22;1009;51.436;6.972;2023-08-12T08:40:11;21.10;99.90
2012;DHT22;1009;51.436;6.972;2023-08-12T08:42:39;21.20;99.90
2012;DHT22;1009;51.436;6.972;2023-08-12T08:45:12;21.20;99.90
2012;DHT22;1009;51.436;6.972;2023-08-12T08:47:41;21.20;99.90
2012;DHT22;1009;51.436;6.972;2023-08-12T08:50:10;21.10;99.90
2012;DHT22;1009;51.436;6.972;2023-08-12T08:52:37;21.10;99.90
2012;DHT22;1009;51.436;6.972;2023-08-12T08:55:05;21.10;99.90
2012;DHT22;1009;51.436;6.972;2023-08-12T08:57:32;21.10;99.90
2012;DHT22;1009;51.436;6.972;2023-08-12T08:59:59;21.20;99.90
2012;DHT22;1009;51.436;6.972;2023-08-12T09:02:26;21.20;99.90
2012;DHT22;1009;51.436;6.972;2023-08-12T09:04:53;21.10;99.90
2012;DHT22;1009;51.436;6.972;2023-08-12T09:07:22;21.30;99.90
2012;DHT22;1009;51.436;6.972;2023-08-12T09:09:52;21.20;99.90
2012;DHT22;1009;51.436;6.972;2023-08-12T09:12:20;21.20;99.90
2012;DHT22;1009;51.436;6.972;2023-08-12T09:14:47;21.20;99.90
2012;DHT22;1009;51.436;6.972;2023-08-12T09:17:15;21.20;99.90
2012;DHT22;1009;51.436;6.972;2023-08-12T09:19:42;21.30;99.90
2012;DHT22;1009;51.436;6.972;2023-08-12T09:22:12;21.20;99.90
2012;DHT22;1009;51.436;6.972;2023-08-12T09:24:40;21.20;99.90
2012;DHT22;1009;51.436;6.972;2023-08-12T09:27:06;21.10;99.90
2012;DHT22;1009;51.436;6.972;2023-08-12T09:29:34;21.20;99.90
2012;DHT22;1009;51.436;6.972;2023-08-12T09:32:10;21.10;99.90
2012;DHT22;1009;51.436;6.972;2023-08-12T09:34:37;21.20;99.90
2012;DHT22;1009;51.436;6.972;2023-08-12T09:37:04;21.30;99.90
2012;DHT22;1009;51.436;6.972;2023-08-12T09:39:31;21.40;99.90
2012;DHT22;1009;51.436;6.972;2023-08-12T09:42:00;21.30;99.90
2012;DHT22;1009;51.436;6.972;2023-08-12T09:44:27;21.30;99.90
2012;DHT22;1009;51.436;6.972;2023-08-12T09:46:57;21.30;99.90
2012;DHT22;1009;51.436;6.972;2023-08-12T09:49:24;21.30;99.90
2012;DHT22;1009;51.436;6.972;2023-08-12T09:51:51;21.40;99.90
2012;DHT22;1009;51.436;6.972;2023-08-12T09:54:19;21.50;99.90
2012;DHT22;1009;51.436;6.972;2023-08-12T09:56:48;21.50;99.90
2012;DHT22;1009;51.436;6.972;2023-08-12T09:59:19;21.60;99.90
2012;DHT22;1009;51.436;6.972;2023-08-12T10:01:48;21.50;99.90
2012;DHT22;1009;51.436;6.972;2023-08-12T10:04:17;21.60;99.90
2012;DHT22;1009;51.436;6.972;2023-08-12T10:06:45;21.50;99.90
2012;DHT22;1009;51.436;6.972;2023-08-12T10:09:15;21.50;99.90
2012;DHT22;1009;51.436;6.972;2023-08-12T10:11:42;21.60;99.90
2012;DHT22;1009;51.436;6.972;2023-08-12T10:14:09;21.60;99.90
2012;DHT22;1009;51.436;6.972;2023-08-12T10:16:38;21.60;99.90
2012;DHT22;1009;51.436;6.972;2023-08-12T10:19:05;21.60;99.90
2012;DHT22;1009;51.436;6.972;2023-08-12T10:21:32;21.50;99.90
2012;DHT22;1009;51.436;6.972;2023-08-12T10:24:00;21.60;99.90
2012;DHT22;1009;51.436;6.972;2023-08-12T10:26:29;21.60;99.90
2012;DHT22;1009;51.436;6.972;2023-08-12T10:28:56;21.60;99.90
2012;DHT22;1009;51.436;6.972;2023-08-12T10:31:24;21.70;99.90
2012;DHT22;1009;51.436;6.972;2023-08-12T10:33:56;21.70;99.90
2012;DHT22;1009;51.436;6.972;2023-08-12T10:36:26;21.70;99.90
2012;DHT22;1009;51.436;6.972;2023-08-12T10:38:53;21.70;99.90
2012;DHT22;1009;51.436;6.972;2023-08-12T10:41:21;21.70;99.90
2012;DHT22;1009;51.436;6.972;2023-08-12T10:43:55;21.80;99.90
2012;DHT22;1009;51.436;6.972;2023-08-12T10:46:26;21.70;99.90
2012;DHT22;1009;51.436;6.972;2023-08-12T10:49:02;21.70;99.90
2012;DHT22;1009;51.436;6.972;2023-08-12T10:51:45;21.70;99.90
2012;DHT22;1009;51.436;6.972;2023-08-12T10:54:16;21.80;99.90
2012;DHT22;1009;51.436;6.972;2023-08-12T10:57:11;21.90;99.90
2012;DHT22;1009;51.436;6.972;2023-08-12T10:59:48;21.90;99.90
2012;DHT22;1009;51.436;6.972;2023-08-12T11:02:16;21.90;99.90
2012;DHT22;1009;51.436;6.972;2023-08-12T11:04:47;21.90;99.90
2012;DHT22;1009;51.436;6.972;2023-08-12T11:07:15;21.90;99.90
2012;DHT22;1009;51.436;6.972;2023-08-12T11:09:42;22.00;99.90
2012;DHT22;1009;51.436;6.972;2023-08-12T11:12:09;21.90;99.90
2012;DHT22;1009;51.436;6.972;2023-08-12T11:14:47;22.00;99.90
2012;DHT22;1009;51.436;6.972;2023-08-12T11:17:15;21.90;99.90
2012;DHT22;1009;51.436;6.972;2023-08-12T11:19:42;21.90;99.90
2012;DHT22;1009;51.436;6.972;2023-08-12T11:22:11;22.00;99.90
2012;DHT22;1009;51.436;6.972;2023-08-12T11:24:40;22.10;99.90
2012;DHT22;1009;51.436;6.972;2023-08-12T11:27:09;22.10;99.90
2012;DHT22;1009;51.436;6.972;2023-08-12T11:29:37;22.30;99.90
2012;DHT22;1009;51.436;6.972;2023-08-12T11:32:05;22.30;99.90
2012;DHT22;1009;51.436;6.972;2023-08-12T11:34:32;22.40;99.90
2012;DHT22;1009;51.436;6.972;2023-08-12T11:36:59;22.50;99.90
2012;DHT22;1009;51.436;6.972;2023-08-12T11:39:28;22.50;99.90
2012;DHT22;1009;51.436;6.972;2023-08-12T11:41:55;22.50;99.90
2012;DHT22;1009;51.436;6.972;2023-08-12T11:44:23;22.60;99.90
2012;DHT22;1009;51.436;6.972;2023-08-12T11:46:50;22.60;99.90
2012;DHT22;1009;51.436;6.972;2023-08-12T11:49:17;22.70;99.90
2012;DHT22;1009;51.436;6.972;2023-08-12T11:51:45;22.60;99.90
2012;DHT22;1009;51.436;6.972;2023-08-12T11:54:14;22.50;99.90
2012;DHT22;1009;51.436;6.972;2023-08-12T11:56:42;22.30;99.90
2012;DHT22;1009;51.436;6.972;2023-08-12T11:59:09;22.40;99.90
2012;DHT22;1009;51.436;6.972;2023-08-12T12:01:36;22.40;99.90
2012;DHT22;1009;51.436;6.972;2023-08-12T12:04:04;22.30;99.90
2012;DHT22;1009;51.436;6.972;2023-08-12T12:06:31;22.40;99.90
2012;DHT22;1009;51.436;6.972;2023-08-12T12:09:03;22.40;99.90
2012;DHT22;1009;51.436;6.972;2023-08-12T12:11:31;22.60;99.90
2012;DHT22;1009;51.436;6.972;2023-08-12T12:14:02;22.60;99.90
2012;DHT22;1009;51.436;6.972;2023-08-12T12:16:37;22.60;99.90
2012;DHT22;1009;51.436;6.972;2023-08-12T12:19:08;22.50;99.90
2012;DHT22;1009;51.436;6.972;2023-08-12T12:21:39;22.40;99.90
2012;DHT22;1009;51.436;6.972;2023-08-12T12:24:07;22.30;99.90
2012;DHT22;1009;51.436;6.972;2023-08-12T12:26:34;22.00;99.90
2012;DHT22;1009;51.436;6.972;2023-08-12T12:29:03;21.70;99.90
2012;DHT22;1009;51.436;6.972;2023-08-12T12:31:31;21.60;99.90
2012;DHT22;1009;51.436;6.972;2023-08-12T12:33:59;21.50;99.90
2012;DHT22;1009;51.436;6.972;2023-08-12T12:36:25;21.50;99.90
2012;DHT22;1009;51.436;6.972;2023-08-12T12:38:52;21.60;99.90
2012;DHT22;1009;51.436;6.972;2023-08-12T12:41:19;21.60;99.90
2012;DHT22;1009;51.436;6.972;2023-08-12T12:43:46;21.60;99.90
2012;DHT22;1009;51.436;6.972;2023-08-12T12:46:14;21.50;99.90
2012;DHT22;1009;51.436;6.972;2023-08-12T12:48:42;21.30;99.90
2012;DHT22;1009;51.436;6.972;2023-08-12T12:51:08;21.20;99.90
2012;DHT22;1009;51.436;6.972;2023-08-12T12:53:35;21.20;99.90
2012;DHT22;1009;51.436;6.972;2023-08-12T12:56:02;21.20;99.90
2012;DHT22;1009;51.436;6.972;2023-08-12T12:58:30;21.30;99.90
2012;DHT22;1009;51.436;6.972;2023-08-12T13:00:58;21.40;99.90
2012;DHT22;1009;51.436;6.972;2023-08-12T13:03:27;21.50;99.90
2012;DHT22;1009;51.436;6.972;2023-08-12T13:05:54;21.50;99.90
2012;DHT22;1009;51.436;6.972;2023-08-12T13:08:20;21.50;99.90
2012;DHT22;1009;51.436;6.972;2023-08-12T13:10:47;21.40;99.90
2012;DHT22;1009;51.436;6.972;2023-08-12T13:13:15;21.50;99.90
2012;DHT22;1009;51.436;6.972;2023-08-12T13:15:42;21.60;99.90
2012;DHT22;1009;51.436;6.972;2023-08-12T13:18:09;21.50;99.90
2012;DHT22;1009;51.436;6.972;2023-08-12T13:20:37;21.50;99.90
2012;DHT22;1009;51.436;6.972;2023-08-12T13:23:04;21.60;99.90
2012;DHT22;1009;51.436;6.972;2023-08-12T13:25:32;21.70;99.90
2012;DHT22;1009;51.436;6.972;2023-08-12T13:28:00;21.70;99.90
2012;DHT22;1009;51.436;6.972;2023-08-12T13:30:27;21.80;99.90
2012;DHT22;1009;51.436;6.972;2023-08-12T13:32:54;21.80;99.90
2012;DHT22;1009;51.436;6.972;2023-08-12T13:35:21;21.90;99.90
2012;DHT22;1009;51.436;6.972;2023-08-12T13:37:50;21.90;99.90
2012;DHT22;1009;51.436;6.972;2023-08-12T13:40:17;21.80;99.90
2012;DHT22;1009;51.436;6.972;2023-08-12T13:42:44;21.80;99.90
2012;DHT22;1009;51.436;6.972;2023-08-12T13:45:13;21.80;99.90
2012;DHT22;1009;51.436;6.972;2023-08-12T13:47:40;21.70;99.90
2012;DHT22;1009;51.436;6.972;2023-08-12T13:50:07;21.70;99.90
2012;DHT22;1009;51.436;6.972;2023-08-12T13:52:34;21.60;99.90
2012;DHT22;1009;51.436;6.972;2023-08-12T13:55:03;21.60;99.90
2012;DHT22;1009;51.436;6.972;2023-08-12T13:57:30;21.70;99.90
2012;DHT22;1009;51.436;6.972;2023-08-12T14:00:00;21.80;99.90
2012;DHT22;1009;51.436;6.972;2023-08-12T14:02:35;21.80;99.90
2012;DHT22;1009;51.436;6.972;2023-08-12T14:05:03;21.90;99.90
2012;DHT22;1009;51.436;6.972;2023-08-12T14:07:30;22.00;99.90
2012;DHT22;1009;51.436;6.972;2023-08-12T14:09:57;22.00;99.90
2012;DHT22;1009;51.436;6.972;2023-08-12T14:12:25;22.10;99.90
2012;DHT22;1009;51.436;6.972;2023-08-12T14:14:58;22.10;99.90
2012;DHT22;1009;51.436;6.972;2023-08-12T14:17:25;22.20;99.90
2012;DHT22;1009;51.436;6.972;2023-08-12T14:19:52;22.30;99.90
2012;DHT22;1009;51.436;6.972;2023-08-12T14:22:19;22.40;99.90
2012;DHT22;1009;51.436;6.972;2023-08-12T14:24:47;22.40;99.90
2012;DHT22;1009;51.436;6.972;2023-08-12T14:27:15;22.40;99.90
2012;DHT22;1009;51.436;6.972;2023-08-12T14:29:44;22.40;99.90
2012;DHT22;1009;51.436;6.972;2023-08-12T14:32:11;22.60;99.90
2012;DHT22;1009;51.436;6.972;2023-08-12T14:34:38;22.90;99.90
2012;DHT22;1009;51.436;6.972;2023-08-12T14:37:04;23.20;99.90
2012;DHT22;1009;51.436;6.972;2023-08-12T14:39:33;23.40;99.90
2012;DHT22;1009;51.436;6.972;2023-08-12T14:42:00;23.50;99.90
2012;DHT22;1009;51.436;6.972;2023-08-12T14:44:28;23.70;99.90
2012;DHT22;1009;51.436;6.972;2023-08-12T14:46:57;23.80;99.90
2012;DHT22;1009;51.436;6.972;2023-08-12T14:49:24;23.70;99.90
2012;DHT22;1009;51.436;6.972;2023-08-12T14:51:51;23.60;99.90
2012;DHT22;1009;51.436;6.972;2023-08-12T14:54:20;23.30;99.90
2012;DHT22;1009;51.436;6.972;2023-08-12T14:56:47;23.00;99.90
2012;DHT22;1009;51.436;6.972;2023-08-12T14:59:14;22.70;99.90
2012;DHT22;1009;51.436;6.972;2023-08-12T15:01:41;22.60;99.90
2012;DHT22;1009;51.436;6.972;2023-08-12T15:04:09;22.50;99.90
2012;DHT22;1009;51.436;6.972;2023-08-12T15:06:36;22.30;99.90
2012;DHT22;1009;51.436;6.972;2023-08-12T15:09:02;22.10;99.90
2012;DHT22;1009;51.436;6.972;2023-08-12T15:11:30;22.00;99.90
2012;DHT22;1009;51.436;6.972;2023-08-12T15:13:57;22.00;99.90
2012;DHT22;1009;51.436;6.972;2023-08-12T15:16:23;22.10;99.90
2012;DHT22;1009;51.436;6.972;2023-08-12T15:18:50;22.30;99.90
2012;DHT22;1009;51.436;6.972;2023-08-12T15:21:19;22.50;99.90
2012;DHT22;1009;51.436;6.972;2023-08-12T15:23:45;22.60;99.90
2012;DHT22;1009;51.436;6.972;2023-08-12T15:26:12;22.70;99.90
2012;DHT22;1009;51.436;6.972;2023-08-12T15:28:39;22.60;99.90
2012;DHT22;1009;51.436;6.972;2023-08-12T15:31:06;22.60;99.90
2012;DHT22;1009;51.436;6.972;2023-08-12T15:33:32;22.60;99.90
2012;DHT22;1009;51.436;6.972;2023-08-12T15:36:00;22.50;99.90
2012;DHT22;1009;51.436;6.972;2023-08-12T15:38:28;22.40;99.90
2012;DHT22;1009;51.436;6.972;2023-08-12T15:40:54;22.40;99.90
2012;DHT22;1009;51.436;6.972;2023-08-12T15:43:21;22.40;99.90
2012;DHT22;1009;51.436;6.972;2023-08-12T15:45:54;22.40;99.90
2012;DHT22;1009;51.436;6.972;2023-08-12T15:48:20;22.30;99.90
2012;DHT22;1009;51.436;6.972;2023-08-12T15:50:47;22.20;99.90
2012;DHT22;1009;51.436;6.972;2023-08-12T15:53:14;22.20;99.90
2012;DHT22;1009;51.436;6.972;2023-08-12T15:55:42;22.20;99.90
2012;DHT22;1009;51.436;6.972;2023-08-12T15:58:09;22.20;99.90
2012;DHT22;1009;51.436;6.972;2023-08-12T16:00:36;22.30;99.90
2012;DHT22;1009;51.436;6.972;2023-08-12T16:03:05;22.30;99.90
2012;DHT22;1009;51.436;6.972;2023-08-12T16:05:33;22.20;99.90